sensor_id;sensor_type;location;lat;lon;timestamp;temperature;humidity
57664;DHT22;43493;53.098;6.064;2023-03-25T00:00:56;10.10;99.90
57664;DHT22;43493;53.098;6.064;2023-03-25T00:03:24;10.10;99.90
57664;DHT22;43493;53.098;6.064;2023-03-25T00:05:51;10.20;99.90
57664;DHT22;43493;53.098;6.064;2023-03-25T00:08:17;10.10;99.90
57664;DHT22;43493;53.098;6.064;2023-03-25T00:10:43;10.10;99.90
57664;DHT22;43493;53.098;6.064;2023-03-25T00:13:09;10.20;99.90
57664;DHT22;43493;53.098;6.064;2023-03-25T00:15:41;10.20;99.90
57664;DHT22;43493;53.098;6.064;2023-03-25T00:18:11;10.20;99.90
57664;DHT22;43493;53.098;6.064;2023-03-25T00:20:36;10.10;99.90
57664;DHT22;43493;53.098;6.064;2023-03-25T00:23:06;10.10;99.90
57664;DHT22;43493;53.098;6.064;2023-03-25T00:25:32;10.10;99.90
57664;DHT22;43493;53.098;6.064;2023-03-25T00:27:59;10.10;99.90
57664;DHT22;43493;53.098;6.064;2023-03-25T00:30:25;10.10;99.90
57664;DHT22;43493;53.098;6.064;2023-03-25T00:32:51;10.10;99.90
57664;DHT22;43493;53.098;6.064;2023-03-25T00:35:21;10.10;99.90
57664;DHT22;43493;53.098;6.064;2023-03-25T00:37:47;10.10;99.90
57664;DHT22;43493;53.098;6.064;2023-03-25T00:40:16;10.10;99.90
57664;DHT22;43493;53.098;6.064;2023-03-25T00:42:42;10.00;99.90
57664;DHT22;43493;53.098;6.064;2023-03-25T00:45:13;10.00;99.90
57664;DHT22;43493;53.098;6.064;2023-03-25T00:47:38;9.90;99.90
57664;DHT22;43493;53.098;6.064;2023-03-25T00:50:04;9.90;99.90
57664;DHT22;43493;53.098;6.064;2023-03-25T00:52:30;9.90;99.90
57664;DHT22;43493;53.098;6.064;2023-03-25T00:54:56;9.90;99.90
57664;DHT22;43493;53.098;6.064;2023-03-25T00:57:22;9.80;99.90
57664;DHT22;43493;53.098;6.064;2023-03-25T00:59:47;9.80;99.90
57664;DHT22;43493;53.098;6.064;2023-03-25T01:02:13;9.80;99.90
57664;DHT22;43493;53.098;6.064;2023-03-25T01:04:41;9.80;99.90
57664;DHT22;43493;53.098;6.064;2023-03-25T01:07:10;9.80;99.90
57664;DHT22;43493;53.098;6.064;2023-03-25T01:09:38;9.80;99.90
57664;DHT22;43493;53.098;6.064;2023-03-25T01:12:04;9.80;99.90
57664;DHT22;43493;53.098;6.064;2023-03-25T01:14:29;9.80;99.90
57664;DHT22;43493;53.098;6.064;2023-03-25T01:16:57;9.80;99.90
57664;DHT22;43493;53.098;6.064;2023-03-25T01:19:23;9.80;99.90
57664;DHT22;43493;53.098;6.064;2023-03-25T01:21:50;9.80;99.90
57664;DHT22;43493;53.098;6.064;2023-03-25T01:24:15;9.70;99.90
57664;DHT22;43493;53.098;6.064;2023-03-25T01:26:42;9.80;99.90
57664;DHT22;43493;53.098;6.064;2023-03-25T01:29:09;9.80;99.90
57664;DHT22;43493;53.098;6.064;2023-03-25T01:31:35;9.80;99.90
57664;DHT22;43493;53.098;6.064;2023-03-25T01:34:01;9.70;99.90
57664;DHT22;43493;53.098;6.064;2023-03-25T01:36:27;9.70;99.90
57664;DHT22;43493;53.098;6.064;2023-03-25T01:38:57;9.70;99.90
57664;DHT22;43493;53.098;6.064;2023-03-25T01:41:25;9.70;99.90
57664;DHT22;43493;53.098;6.064;2023-03-25T01:46:29;9.70;99.90
57664;DHT22;43493;53.098;6.064;2023-03-25T01:48:55;9.70;99.90
57664;DHT22;43493;53.098;6.064;2023-03-25T01:51:26;9.70;99.90
57664;DHT22;43493;53.098;6.064;2023-03-25T01:53:53;9.70;99.90
57664;DHT22;43493;53.098;6.064;2023-03-25T01:56:26;9.70;99.90
57664;DHT22;43493;53.098;6.064;2023-03-25T01:58:56;9.70;99.90
57664;DHT22;43493;53.098;6.064;2023-03-25T02:01:23;9.70;99.90
57664;DHT22;43493;53.098;6.064;2023-03-25T02:03:52;9.70;99.90
57664;DHT22;43493;53.098;6.064;2023-03-25T02:06:22;9.70;99.90
57664;DHT22;43493;53.098;6.064;2023-03-25T02:08:53;9.70;99.90
57664;DHT22;43493;53.098;6.064;2023-03-25T02:11:21;9.70;99.90
57664;DHT22;43493;53.098;6.064;2023-03-25T02:13:50;9.70;99.90
57664;DHT22;43493;53.098;6.064;2023-03-25T02:24:31;9.70;99.90
57664;DHT22;43493;53.098;6.064;2023-03-25T02:27:47;9.70;99.90
57664;DHT22;43493;53.098;6.064;2023-03-25T02:41:08;9.60;99.90
57664;DHT22;43493;53.098;6.064;2023-03-25T02:43:45;9.60;99.90
57664;DHT22;43493;53.098;6.064;2023-03-25T02:46:16;9.60;99.90
57664;DHT22;43493;53.098;6.064;2023-03-25T02:49:01;9.60;99.90
57664;DHT22;43493;53.098;6.064;2023-03-25T02:51:34;9.60;99.90
57664;DHT22;43493;53.098;6.064;2023-03-25T02:54:05;9.60;99.90
57664;DHT22;43493;53.098;6.064;2023-03-25T02:56:32;9.60;99.90
57664;DHT22;43493;53.098;6.064;2023-03-25T02:59:00;9.60;99.90
57664;DHT22;43493;53.098;6.064;2023-03-25T03:01:27;9.60;99.90
57664;DHT22;43493;53.098;6.064;2023-03-25T03:03:53;9.60;99.90
57664;DHT22;43493;53.098;6.064;2023-03-25T03:06:20;9.60;99.90
57664;DHT22;43493;53.098;6.064;2023-03-25T03:17:32;9.60;99.90
57664;DHT22;43493;53.098;6.064;2023-03-25T03:20:38;9.60;99.90
57664;DHT22;43493;53.098;6.064;2023-03-25T03:28:43;9.60;99.90
57664;DHT22;43493;53.098;6.064;2023-03-25T03:31:19;9.60;99.90
57664;DHT22;43493;53.098;6.064;2023-03-25T03:33:56;9.60;99.90
57664;DHT22;43493;53.098;6.064;2023-03-25T03:36:29;9.60;99.90
57664;DHT22;43493;53.098;6.064;2023-03-25T03:39:01;9.60;99.90
57664;DHT22;43493;53.098;6.064;2023-03-25T03:41:33;9.60;99.90
57664;DHT22;43493;53.098;6.064;2023-03-25T03:44:12;9.60;99.90
57664;DHT22;43493;53.098;6.064;2023-03-25T03:47:17;9.60;99.90
57664;DHT22;43493;53.098;6.064;2023-03-25T03:49:38;9.60;99.90
57664;DHT22;43493;53.098;6.064;2023-03-25T03:52:10;9.60;99.90
57664;DHT22;43493;53.098;6.064;2023-03-25T03:54:49;9.60;99.90
57664;DHT22;43493;53.098;6.064;2023-03-25T03:57:26;9.60;99.90
57664;DHT22;43493;53.098;6.064;2023-03-25T04:00:05;9.60;99.90
57664;DHT22;43493;53.098;6.064;2023-03-25T04:02:56;9.60;99.90
57664;DHT22;43493;53.098;6.064;2023-03-25T04:05:23;9.60;99.90
57664;DHT22;43493;53.098;6.064;2023-03-25T04:08:03;9.60;99.90
57664;DHT22;43493;53.098;6.064;2023-03-25T04:10:42;9.60;99.90
57664;DHT22;43493;53.098;6.064;2023-03-25T04:13:13;9.60;99.90
57664;DHT22;43493;53.098;6.064;2023-03-25T04:15:41;9.60;99.90
57664;DHT22;43493;53.098;6.064;2023-03-25T04:18:07;9.60;99.90
57664;DHT22;43493;53.098;6.064;2023-03-25T04:20:34;9.60;99.90
57664;DHT22;43493;53.098;6.064;2023-03-25T04:23:04;9.60;99.90
57664;DHT22;43493;53.098;6.064;2023-03-25T04:25:30;9.60;99.90
57664;DHT22;43493;53.098;6.064;2023-03-25T04:27:57;9.60;99.90
57664;DHT22;43493;53.098;6.064;2023-03-25T04:30:26;9.60;99.90
57664;DHT22;43493;53.098;6.064;2023-03-25T04:32:51;9.60;99.90
57664;DHT22;43493;53.098;6.064;2023-03-25T04:35:18;9.60;99.90
57664;DHT22;43493;53.098;6.064;2023-03-25T04:37:45;9.60;99.90
57664;DHT22;43493;53.098;6.064;2023-03-25T04:40:12;9.60;99.90
57664;DHT22;43493;53.098;6.064;2023-03-25T04:42:41;9.60;99.90
57664;DHT22;43493;53.098;6.064;2023-03-25T04:45:08;9.60;99.90
57664;DHT22;43493;53.098;6.064;2023-03-25T04:47:39;9.60;99.90
57664;DHT22;43493;53.098;6.064;2023-03-25T04:50:21;9.50;99.90
57664;DHT22;43493;53.098;6.064;2023-03-25T04:52:51;9.60;99.90
57664;DHT22;43493;53.098;6.064;2023-03-25T04:55:22;9.60;99.90
57664;DHT22;43493;53.098;6.064;2023-03-25T04:57:51;9.50;99.90
57664;DHT22;43493;53.098;6.064;2023-03-25T05:00:19;9.50;99.90
57664;DHT22;43493;53.098;6.064;2023-03-25T05:02:48;9.50;99.90
57664;DHT22;43493;53.098;6.064;2023-03-25T05:05:16;9.50;99.90
57664;DHT22;43493;53.098;6.064;2023-03-25T05:07:46;9.50;99.90
57664;DHT22;43493;53.098;6.064;2023-03-25T05:10:14;9.50;99.90
57664;DHT22;43493;53.098;6.064;2023-03-25T05:12:41;9.50;99.90
57664;DHT22;43493;53.098;6.064;2023-03-25T05:15:08;9.40;99.90
57664;DHT22;43493;53.098;6.064;2023-03-25T05:17:34;9.40;99.90
57664;DHT22;43493;53.098;6.064;2023-03-25T05:20:00;9.40;99.90
57664;DHT22;43493;53.098;6.064;2023-03-25T05:22:25;9.50;99.90
57664;DHT22;43493;53.098;6.064;2023-03-25T05:24:51;9.40;99.90
57664;DHT22;43493;53.098;6.064;2023-03-25T05:27:21;9.40;99.90
57664;DHT22;43493;53.098;6.064;2023-03-25T05:29:46;9.40;99.90
57664;DHT22;43493;53.098;6.064;2023-03-25T05:32:12;9.30;99.90
57664;DHT22;43493;53.098;6.064;2023-03-25T05:34:45;9.40;99.90
57664;DHT22;43493;53.098;6.064;2023-03-25T05:37:13;9.40;99.90
57664;DHT22;43493;53.098;6.064;2023-03-25T05:39:39;9.40;99.90
57664;DHT22;43493;53.098;6.064;2023-03-25T05:42:05;9.40;99.90
57664;DHT22;43493;53.098;6.064;2023-03-25T05:44:31;9.40;99.90
57664;DHT22;43493;53.098;6.064;2023-03-25T05:46:57;9.40;99.90
57664;DHT22;43493;53.098;6.064;2023-03-25T05:49:26;9.40;99.90
57664;DHT22;43493;53.098;6.064;2023-03-25T05:51:52;9.40;99.90
57664;DHT22;43493;53.098;6.064;2023-03-25T05:54:21;9.40;99.90
57664;DHT22;43493;53.098;6.064;2023-03-25T05:56:52;9.40;99.90
57664;DHT22;43493;53.098;6.064;2023-03-25T05:59:17;9.50;99.90
57664;DHT22;43493;53.098;6.064;2023-03-25T06:01:45;9.50;99.90
57664;DHT22;43493;53.098;6.064;2023-03-25T06:04:11;9.50;99.90
57664;DHT22;43493;53.098;6.064;2023-03-25T06:06:38;9.50;99.90
57664;DHT22;43493;53.098;6.064;2023-03-25T06:09:04;9.40;99.90
57664;DHT22;43493;53.098;6.064;2023-03-25T06:11:30;9.40;99.90
57664;DHT22;43493;53.098;6.064;2023-03-25T06:14:05;9.40;99.90
57664;DHT22;43493;53.098;6.064;2023-03-25T06:16:31;9.40;99.90
57664;DHT22;43493;53.098;6.064;2023-03-25T06:18:58;9.40;99.90
57664;DHT22;43493;53.098;6.064;2023-03-25T06:21:26;9.40;99.90
57664;DHT22;43493;53.098;6.064;2023-03-25T06:23:52;9.40;99.90
57664;DHT22;43493;53.098;6.064;2023-03-25T06:26:21;9.40;99.90
57664;DHT22;43493;53.098;6.064;2023-03-25T06:28:47;9.40;99.90
57664;DHT22;43493;53.098;6.064;2023-03-25T06:31:15;9.40;99.90
57664;DHT22;43493;53.098;6.064;2023-03-25T06:33:46;9.40;99.90
57664;DHT22;43493;53.098;6.064;2023-03-25T06:36:13;9.40;99.90
57664;DHT22;43493;53.098;6.064;2023-03-25T06:38:44;9.50;99.90
57664;DHT22;43493;53.098;6.064;2023-03-25T06:41:10;9.50;99.90
57664;DHT22;43493;53.098;6.064;2023-03-25T06:43:36;9.50;99.90
57664;DHT22;43493;53.098;6.064;2023-03-25T06:46:02;9.60;99.90
57664;DHT22;43493;53.098;6.064;2023-03-25T06:48:28;9.60;99.90
57664;DHT22;43493;53.098;6.064;2023-03-25T06:50:53;9.70;99.90
57664;DHT22;43493;53.098;6.064;2023-03-25T06:53:19;9.60;99.90
57664;DHT22;43493;53.098;6.064;2023-03-25T06:55:45;9.60;99.90
57664;DHT22;43493;53.098;6.064;2023-03-25T06:58:11;9.60;99.90
57664;DHT22;43493;53.098;6.064;2023-03-25T07:00:37;9.60;99.90
57664;DHT22;43493;53.098;6.064;2023-03-25T07:03:03;9.50;99.90
57664;DHT22;43493;53.098;6.064;2023-03-25T07:05:29;9.50;99.90
57664;DHT22;43493;53.098;6.064;2023-03-25T07:07:55;9.60;99.90
57664;DHT22;43493;53.098;6.064;2023-03-25T07:10:20;9.60;99.90
57664;DHT22;43493;53.098;6.064;2023-03-25T07:12:46;9.70;99.90
57664;DHT22;43493;53.098;6.064;2023-03-25T07:15:12;9.70;99.90
57664;DHT22;43493;53.098;6.064;2023-03-25T07:17:38;9.70;99.90
57664;DHT22;43493;53.098;6.064;2023-03-25T07:20:05;9.70;99.90
57664;DHT22;43493;53.098;6.064;2023-03-25T07:22:31;9.70;99.90
57664;DHT22;43493;53.098;6.064;2023-03-25T07:24:57;9.60;99.90
57664;DHT22;43493;53.098;6.064;2023-03-25T07:27:23;9.60;99.90
57664;DHT22;43493;53.098;6.064;2023-03-25T07:29:49;9.60;99.90
57664;DHT22;43493;53.098;6.064;2023-03-25T07:32:15;9.50;99.90
57664;DHT22;43493;53.098;6.064;2023-03-25T07:34:41;9.50;99.90
57664;DHT22;43493;53.098;6.064;2023-03-25T07:37:07;9.50;99.90
57664;DHT22;43493;53.098;6.064;2023-03-25T07:39:34;9.40;99.90
57664;DHT22;43493;53.098;6.064;2023-03-25T07:42:00;9.30;99.90
57664;DHT22;43493;53.098;6.064;2023-03-25T07:44:25;9.30;99.90
57664;DHT22;43493;53.098;6.064;2023-03-25T07:46:51;9.30;99.90
57664;DHT22;43493;53.098;6.064;2023-03-25T07:49:17;9.30;99.90
57664;DHT22;43493;53.098;6.064;2023-03-25T07:51:44;9.20;99.90
57664;DHT22;43493;53.098;6.064;2023-03-25T07:54:10;9.20;99.90
57664;DHT22;43493;53.098;6.064;2023-03-25T07:56:36;9.30;99.90
57664;DHT22;43493;53.098;6.064;2023-03-25T07:59:03;9.30;99.90
57664;DHT22;43493;53.098;6.064;2023-03-25T08:01:29;9.30;99.90
57664;DHT22;43493;53.098;6.064;2023-03-25T08:03:55;9.30;99.90
57664;DHT22;43493;53.098;6.064;2023-03-25T08:06:22;9.40;99.90
57664;DHT22;43493;53.098;6.064;2023-03-25T08:08:47;9.50;99.90
57664;DHT22;43493;53.098;6.064;2023-03-25T08:11:13;9.60;99.90
57664;DHT22;43493;53.098;6.064;2023-03-25T08:13:39;9.60;99.90
57664;DHT22;43493;53.098;6.064;2023-03-25T08:16:10;9.60;99.90
57664;DHT22;43493;53.098;6.064;2023-03-25T08:18:36;9.50;99.90
57664;DHT22;43493;53.098;6.064;2023-03-25T08:21:02;9.50;99.90
57664;DHT22;43493;53.098;6.064;2023-03-25T08:23:28;9.50;99.90
57664;DHT22;43493;53.098;6.064;2023-03-25T08:25:53;9.60;99.90
57664;DHT22;43493;53.098;6.064;2023-03-25T08:28:20;9.70;99.90
57664;DHT22;43493;53.098;6.064;2023-03-25T08:30:52;9.80;99.90
57664;DHT22;43493;53.098;6.064;2023-03-25T08:33:21;9.80;99.90
57664;DHT22;43493;53.098;6.064;2023-03-25T08:35:51;9.80;99.90
57664;DHT22;43493;53.098;6.064;2023-03-25T08:38:17;9.80;99.90
57664;DHT22;43493;53.098;6.064;2023-03-25T08:40:43;9.80;99.90
57664;DHT22;43493;53.098;6.064;2023-03-25T08:43:09;9.80;99.90
57664;DHT22;43493;53.098;6.064;2023-03-25T08:45:36;9.80;99.90
57664;DHT22;43493;53.098;6.064;2023-03-25T08:48:02;9.90;99.90
57664;DHT22;43493;53.098;6.064;2023-03-25T08:50:29;10.10;99.90
57664;DHT22;43493;53.098;6.064;2023-03-25T08:52:58;10.20;99.90
57664;DHT22;43493;53.098;6.064;2023-03-25T08:55:24;10.40;99.90
57664;DHT22;43493;53.098;6.064;2023-03-25T08:57:50;10.50;99.90
57664;DHT22;43493;53.098;6.064;2023-03-25T09:00:16;10.60;99.90
57664;DHT22;43493;53.098;6.064;2023-03-25T09:02:43;10.80;99.90
57664;DHT22;43493;53.098;6.064;2023-03-25T09:05:10;11.00;99.90
57664;DHT22;43493;53.098;6.064;2023-03-25T09:07:37;11.10;99.90
57664;DHT22;43493;53.098;6.064;2023-03-25T09:10:17;11.10;99.90
57664;DHT22;43493;53.098;6.064;2023-03-25T09:12:43;11.20;99.90
57664;DHT22;43493;53.098;6.064;2023-03-25T09:15:09;11.20;99.90
57664;DHT22;43493;53.098;6.064;2023-03-25T09:17:36;11.20;99.90
57664;DHT22;43493;53.098;6.064;2023-03-25T09:20:02;11.30;99.90
57664;DHT22;43493;53.098;6.064;2023-03-25T09:22:28;11.20;99.90
57664;DHT22;43493;53.098;6.064;2023-03-25T09:24:54;11.30;99.90
57664;DHT22;43493;53.098;6.064;2023-03-25T09:27:19;11.30;99.90
57664;DHT22;43493;53.098;6.064;2023-03-25T09:29:45;11.30;99.90
57664;DHT22;43493;53.098;6.064;2023-03-25T09:32:11;11.20;99.90
57664;DHT22;43493;53.098;6.064;2023-03-25T09:34:37;11.10;99.90
57664;DHT22;43493;53.098;6.064;2023-03-25T09:37:03;11.10;99.90
57664;DHT22;43493;53.098;6.064;2023-03-25T09:39:29;11.00;99.90
57664;DHT22;43493;53.098;6.064;2023-03-25T09:47:30;10.80;99.90
57664;DHT22;43493;53.098;6.064;2023-03-25T09:50:04;10.90;99.90
57664;DHT22;43493;53.098;6.064;2023-03-25T09:52:43;10.80;99.90
57664;DHT22;43493;53.098;6.064;2023-03-25T09:55:19;10.80;99.90
57664;DHT22;43493;53.098;6.064;2023-03-25T09:57:49;10.80;99.90
57664;DHT22;43493;53.098;6.064;2023-03-25T10:00:22;10.90;99.90
57664;DHT22;43493;53.098;6.064;2023-03-25T10:03:02;10.90;99.90
57664;DHT22;43493;53.098;6.064;2023-03-25T10:08:43;11.00;99.90
57664;DHT22;43493;53.098;6.064;2023-03-25T10:11:21;11.00;99.90
57664;DHT22;43493;53.098;6.064;2023-03-25T10:13:54;11.10;99.90
57664;DHT22;43493;53.098;6.064;2023-03-25T10:16:50;11.10;99.90
57664;DHT22;43493;53.098;6.064;2023-03-25T10:19:40;11.10;99.90
57664;DHT22;43493;53.098;6.064;2023-03-25T10:22:26;11.10;99.90
57664;DHT22;43493;53.098;6.064;2023-03-25T10:25:03;11.20;99.90
57664;DHT22;43493;53.098;6.064;2023-03-25T10:27:44;11.20;99.90
57664;DHT22;43493;53.098;6.064;2023-03-25T10:30:16;11.20;99.90
57664;DHT22;43493;53.098;6.064;2023-03-25T10:32:47;11.10;99.90
57664;DHT22;43493;53.098;6.064;2023-03-25T10:35:41;11.20;99.90
57664;DHT22;43493;53.098;6.064;2023-03-25T10:38:16;11.20;99.90
57664;DHT22;43493;53.098;6.064;2023-03-25T10:40:48;11.30;99.90
57664;DHT22;43493;53.098;6.064;2023-03-25T10:43:30;11.30;99.90
57664;DHT22;43493;53.098;6.064;2023-03-25T10:48:30;11.50;99.90
57664;DHT22;43493;53.098;6.064;2023-03-25T10:53:28;11.60;99.90
57664;DHT22;43493;53.098;6.064;2023-03-25T10:56:15;11.70;99.90
57664;DHT22;43493;53.098;6.064;2023-03-25T10:58:45;11.80;99.90
57664;DHT22;43493;53.098;6.064;2023-03-25T11:01:17;11.90;99.90
57664;DHT22;43493;53.098;6.064;2023-03-25T11:03:48;11.90;99.90
57664;DHT22;43493;53.098;6.064;2023-03-25T11:06:41;12.00;99.90
57664;DHT22;43493;53.098;6.064;2023-03-25T11:09:24;12.00;99.90
57664;DHT22;43493;53.098;6.064;2023-03-25T11:11:51;12.00;99.90
57664;DHT22;43493;53.098;6.064;2023-03-25T11:14:23;12.00;99.90
57664;DHT22;43493;53.098;6.064;2023-03-25T11:17:06;12.00;99.90
57664;DHT22;43493;53.098;6.064;2023-03-25T11:19:43;12.00;99.90
57664;DHT22;43493;53.098;6.064;2023-03-25T11:22:28;11.90;99.90
57664;DHT22;43493;53.098;6.064;2023-03-25T11:25:04;11.90;99.90
57664;DHT22;43493;53.098;6.064;2023-03-25T11:27:46;11.90;99.90
57664;DHT22;43493;53.098;6.064;2023-03-25T11:30:19;11.80;99.90
57664;DHT22;43493;53.098;6.064;2023-03-25T11:33:02;11.80;99.90
57664;DHT22;43493;53.098;6.064;2023-03-25T11:35:30;11.90;99.90
57664;DHT22;43493;53.098;6.064;2023-03-25T11:37:59;12.00;99.90
57664;DHT22;43493;53.098;6.064;2023-03-25T11:40:27;12.00;99.90
57664;DHT22;43493;53.098;6.064;2023-03-25T11:42:56;12.00;99.90
57664;DHT22;43493;53.098;6.064;2023-03-25T11:45:27;12.00;99.90
57664;DHT22;43493;53.098;6.064;2023-03-25T11:48:01;12.10;99.90
57664;DHT22;43493;53.098;6.064;2023-03-25T11:50:33;12.10;99.90
57664;DHT22;43493;53.098;6.064;2023-03-25T11:53:01;12.20;99.90
57664;DHT22;43493;53.098;6.064;2023-03-25T11:55:30;12.20;99.90
57664;DHT22;43493;53.098;6.064;2023-03-25T11:57:58;12.10;99.90
57664;DHT22;43493;53.098;6.064;2023-03-25T12:00:37;12.20;99.90
57664;DHT22;43493;53.098;6.064;2023-03-25T12:05:39;12.20;99.90
57664;DHT22;43493;53.098;6.064;2023-03-25T12:08:16;12.20;99.90
57664;DHT22;43493;53.098;6.064;2023-03-25T12:16:25;12.30;99.90
57664;DHT22;43493;53.098;6.064;2023-03-25T12:24:35;12.30;99.90
57664;DHT22;43493;53.098;6.064;2023-03-25T12:35:40;12.50;99.90
57664;DHT22;43493;53.098;6.064;2023-03-25T12:48:54;12.60;99.90
57664;DHT22;43493;53.098;6.064;2023-03-25T12:54:09;12.60;99.90
57664;DHT22;43493;53.098;6.064;2023-03-25T12:59:26;12.50;99.90
57664;DHT22;43493;53.098;6.064;2023-03-25T13:02:01;12.40;99.90
57664;DHT22;43493;53.098;6.064;2023-03-25T13:04:52;12.30;99.90
57664;DHT22;43493;53.098;6.064;2023-03-25T13:07:25;12.20;99.90
57664;DHT22;43493;53.098;6.064;2023-03-25T13:12:52;12.10;99.90
57664;DHT22;43493;53.098;6.064;2023-03-25T13:15:29;12.10;99.90
57664;DHT22;43493;53.098;6.064;2023-03-25T13:18:16;12.20;99.90
57664;DHT22;43493;53.098;6.064;2023-03-25T13:21:03;12.20;99.90
57664;DHT22;43493;53.098;6.064;2023-03-25T13:23:33;12.30;99.90
57664;DHT22;43493;53.098;6.064;2023-03-25T13:26:10;12.30;99.90
57664;DHT22;43493;53.098;6.064;2023-03-25T13:28:44;12.30;99.90
57664;DHT22;43493;53.098;6.064;2023-03-25T13:31:18;12.20;99.90
57664;DHT22;43493;53.098;6.064;2023-03-25T13:33:52;12.10;99.90
57664;DHT22;43493;53.098;6.064;2023-03-25T13:36:28;11.90;99.90
57664;DHT22;43493;53.098;6.064;2023-03-25T13:39:01;11.70;99.90
57664;DHT22;43493;53.098;6.064;2023-03-25T13:41:54;11.60;99.90
57664;DHT22;43493;53.098;6.064;2023-03-25T13:44:29;11.50;99.90
57664;DHT22;43493;53.098;6.064;2023-03-25T13:49:56;11.30;99.90
57664;DHT22;43493;53.098;6.064;2023-03-25T13:52:25;11.30;99.90
57664;DHT22;43493;53.098;6.064;2023-03-25T13:55:16;11.30;99.90
57664;DHT22;43493;53.098;6.064;2023-03-25T14:07:23;11.00;99.90
57664;DHT22;43493;53.098;6.064;2023-03-25T14:12:39;11.00;99.90
57664;DHT22;43493;53.098;6.064;2023-03-25T14:15:17;11.00;99.90
57664;DHT22;43493;53.098;6.064;2023-03-25T14:17:45;10.90;99.90
57664;DHT22;43493;53.098;6.064;2023-03-25T14:20:18;10.90;99.90
57664;DHT22;43493;53.098;6.064;2023-03-25T14:22:48;10.90;99.90
57664;DHT22;43493;53.098;6.064;2023-03-25T14:25:37;10.80;99.90
57664;DHT22;43493;53.098;6.064;2023-03-25T14:28:05;10.80;99.90
57664;DHT22;43493;53.098;6.064;2023-03-25T14:30:32;10.70;99.90
57664;DHT22;43493;53.098;6.064;2023-03-25T14:32:59;10.70;99.90
57664;DHT22;43493;53.098;6.064;2023-03-25T14:43:50;10.50;99.90
57664;DHT22;43493;53.098;6.064;2023-03-25T14:46:20;10.50;99.90
57664;DHT22;43493;53.098;6.064;2023-03-25T14:48:50;10.50;99.90
57664;DHT22;43493;53.098;6.064;2023-03-25T14:56:34;10.50;99.90
57664;DHT22;43493;53.098;6.064;2023-03-25T14:59:16;10.60;99.90
57664;DHT22;43493;53.098;6.064;2023-03-25T15:01:44;10.60;99.90
57664;DHT22;43493;53.098;6.064;2023-03-25T15:06:40;10.70;99.90
57664;DHT22;43493;53.098;6.064;2023-03-25T15:09:08;10.80;99.90
57664;DHT22;43493;53.098;6.064;2023-03-25T15:11:39;10.80;99.90
57664;DHT22;43493;53.098;6.064;2023-03-25T15:14:12;10.80;99.90
57664;DHT22;43493;53.098;6.064;2023-03-25T15:19:16;10.80;99.90
57664;DHT22;43493;53.098;6.064;2023-03-25T15:24:32;10.80;99.90
57664;DHT22;43493;53.098;6.064;2023-03-25T15:27:08;10.90;99.90
57664;DHT22;43493;53.098;6.064;2023-03-25T15:29:51;10.90;99.90
57664;DHT22;43493;53.098;6.064;2023-03-25T15:54:44;10.80;99.90
57664;DHT22;43493;53.098;6.064;2023-03-25T16:00:05;10.80;99.90
57664;DHT22;43493;53.098;6.064;2023-03-25T16:05:30;10.80;99.90
57664;DHT22;43493;53.098;6.064;2023-03-25T16:07:58;10.80;99.90
57664;DHT22;43493;53.098;6.064;2023-03-25T16:10:32;10.80;99.90
57664;DHT22;43493;53.098;6.064;2023-03-25T16:13:15;10.70;99.90
57664;DHT22;43493;53.098;6.064;2023-03-25T16:15:51;10.70;99.90
57664;DHT22;43493;53.098;6.064;2023-03-25T16:18:20;10.70;99.90
57664;DHT22;43493;53.098;6.064;2023-03-25T16:20:47;10.70;99.90
57664;DHT22;43493;53.098;6.064;2023-03-25T16:23:21;10.60;99.90
57664;DHT22;43493;53.098;6.064;2023-03-25T16:25:48;10.60;99.90
57664;DHT22;43493;53.098;6.064;2023-03-25T16:28:38;10.60;99.90
57664;DHT22;43493;53.098;6.064;2023-03-25T16:31:02;10.50;99.90
57664;DHT22;43493;53.098;6.064;2023-03-25T16:33:31;10.50;99.90
57664;DHT22;43493;53.098;6.064;2023-03-25T16:35:59;10.50;99.90
57664;DHT22;43493;53.098;6.064;2023-03-25T16:38:26;10.50;99.90
57664;DHT22;43493;53.098;6.064;2023-03-25T16:41:09;10.50;99.90
57664;DHT22;43493;53.098;6.064;2023-03-25T16:43:36;10.40;99.90
57664;DHT22;43493;53.098;6.064;2023-03-25T16:46:03;10.40;99.90
57664;DHT22;43493;53.098;6.064;2023-03-25T16:48:39;10.40;99.90
57664;DHT22;43493;53.098;6.064;2023-03-25T16:51:18;10.40;99.90
57664;DHT22;43493;53.098;6.064;2023-03-25T16:53:49;10.40;99.90
57664;DHT22;43493;53.098;6.064;2023-03-25T16:59:24;10.30;99.90
57664;DHT22;43493;53.098;6.064;2023-03-25T17:01:54;10.20;99.90
57664;DHT22;43493;53.098;6.064;2023-03-25T17:04:26;10.20;99.90
57664;DHT22;43493;53.098;6.064;2023-03-25T17:07:25;10.20;99.90
57664;DHT22;43493;53.098;6.064;2023-03-25T17:09:59;10.20;99.90
57664;DHT22;43493;53.098;6.064;2023-03-25T17:12:26;10.10;99.90
57664;DHT22;43493;53.098;6.064;2023-03-25T17:15:02;10.10;99.90
57664;DHT22;43493;53.098;6.064;2023-03-25T17:17:41;10.10;99.90
57664;DHT22;43493;53.098;6.064;2023-03-25T17:20:18;10.10;99.90
57664;DHT22;43493;53.098;6.064;2023-03-25T17:23:05;10.00;99.90
57664;DHT22;43493;53.098;6.064;2023-03-25T17:25:48;10.00;99.90
57664;DHT22;43493;53.098;6.064;2023-03-25T17:31:36;10.00;99.90
57664;DHT22;43493;53.098;6.064;2023-03-25T17:34:20;10.00;99.90
57664;DHT22;43493;53.098;6.064;2023-03-25T17:36:48;9.90;99.90
57664;DHT22;43493;53.098;6.064;2023-03-25T17:39:26;9.90;99.90
57664;DHT22;43493;53.098;6.064;2023-03-25T17:41:59;9.90;99.90
57664;DHT22;43493;53.098;6.064;2023-03-25T17:44:35;9.90;99.90
57664;DHT22;43493;53.098;6.064;2023-03-25T17:47:02;9.80;99.90
57664;DHT22;43493;53.098;6.064;2023-03-25T17:49:28;9.90;99.90
57664;DHT22;43493;53.098;6.064;2023-03-25T17:51:54;9.80;99.90
57664;DHT22;43493;53.098;6.064;2023-03-25T17:54:20;9.70;99.90
57664;DHT22;43493;53.098;6.064;2023-03-25T17:56:46;9.80;99.90
57664;DHT22;43493;53.098;6.064;2023-03-25T17:59:18;9.80;99.90
57664;DHT22;43493;53.098;6.064;2023-03-25T18:01:45;9.80;99.90
57664;DHT22;43493;53.098;6.064;2023-03-25T18:04:12;9.80;99.90
57664;DHT22;43493;53.098;6.064;2023-03-25T18:06:39;9.70;99.90
57664;DHT22;43493;53.098;6.064;2023-03-25T18:09:21;9.70;99.90
57664;DHT22;43493;53.098;6.064;2023-03-25T18:11:51;9.70;99.90
57664;DHT22;43493;53.098;6.064;2023-03-25T18:14:18;9.70;99.90
57664;DHT22;43493;53.098;6.064;2023-03-25T18:16:44;9.70;99.90
57664;DHT22;43493;53.098;6.064;2023-03-25T18:19:17;9.70;99.90
57664;DHT22;43493;53.098;6.064;2023-03-25T18:21:44;9.70;99.90
57664;DHT22;43493;53.098;6.064;2023-03-25T18:24:10;9.70;99.90
57664;DHT22;43493;53.098;6.064;2023-03-25T18:26:38;9.70;99.90
57664;DHT22;43493;53.098;6.064;2023-03-25T18:29:15;9.60;99.90
57664;DHT22;43493;53.098;6.064;2023-03-25T18:31:41;9.60;99.90
57664;DHT22;43493;53.098;6.064;2023-03-25T18:34:07;9.60;99.90
57664;DHT22;43493;53.098;6.064;2023-03-25T18:36:33;9.60;99.90
57664;DHT22;43493;53.098;6.064;2023-03-25T18:38:59;9.60;99.90
57664;DHT22;43493;53.098;6.064;2023-03-25T18:41:25;9.60;99.90
57664;DHT22;43493;53.098;6.064;2023-03-25T18:43:50;9.60;99.90